Time;durP1;ratioP1;P1;durP2;ratioP2;P2;SDS_P1;SDS_P2;PMS_P1;PMS_P2;Temp;Humidity;BMP_temperature;BMP_pressure;BME280_temperature;BME280_humidity;BME280_pressure;Samples;Min_cycle;Max_cycle;Signal;HPM_P1;HPM_P2
2023/09/16 00:00:33;;;;;;;2.00;0.73;;;9.70;99.90;;;;;;4964730;28;20215;-87
2023/09/16 00:03:03;;;;;;;1.13;0.70;;;9.70;99.90;;;;;;4958648;28;20566;-87
2023/09/16 00:05:32;;;;;;;1.55;0.85;;;9.70;99.90;;;;;;4935749;28;20191;-87
2023/09/16 00:07:59;;;;;;;2.28;1.00;;;9.70;99.90;;;;;;4945547;28;20251;-86
2023/09/16 00:10:27;;;;;;;2.08;0.93;;;9.60;99.90;;;;;;4967030;28;20223;-88
2023/09/16 00:12:54;;;;;;;2.53;1.00;;;9.60;99.90;;;;;;4931906;28;20284;-86
2023/09/16 00:15:22;;;;;;;2.55;0.80;;;9.60;99.90;;;;;;4934718;28;20207;-86
2023/09/16 00:17:49;;;;;;;3.10;1.10;;;9.60;99.90;;;;;;4959225;28;20682;-87
2023/09/16 00:20:17;;;;;;;1.73;0.80;;;9.60;99.90;;;;;;4946477;28;20227;-87
2023/09/16 00:22:48;;;;;;;4.25;0.80;;;9.50;99.90;;;;;;4942523;29;20283;-86
2023/09/16 00:25:16;;;;;;;1.40;0.90;;;9.50;99.90;;;;;;4948005;28;20307;-87
2023/09/16 00:27:43;;;;;;;2.00;0.80;;;9.50;99.90;;;;;;4964850;28;20272;-87
2023/09/16 00:30:11;;;;;;;1.77;0.80;;;9.40;99.90;;;;;;4952893;28;20254;-87
2023/09/16 00:32:39;;;;;;;3.63;0.90;;;9.40;99.90;;;;;;4960465;28;20205;-86
2023/09/16 00:35:08;;;;;;;1.40;1.00;;;9.40;99.90;;;;;;4943573;28;20743;-86
2023/09/16 00:37:35;;;;;;;3.10;1.00;;;9.40;99.90;;;;;;4945972;28;20202;-86
2023/09/16 00:40:06;;;;;;;4.95;0.95;;;9.40;99.90;;;;;;4946098;28;20231;-87
2023/09/16 00:42:38;;;;;;;3.10;0.93;;;9.40;99.90;;;;;;4946963;28;20199;-86
2023/09/16 00:45:10;;;;;;;5.50;1.20;;;9.40;99.90;;;;;;4941837;29;20288;-86
2023/09/16 00:47:40;;;;;;;4.13;1.10;;;9.30;99.90;;;;;;4953079;28;20224;-87
2023/09/16 00:50:11;;;;;;;1.50;0.75;;;9.30;99.90;;;;;;4939321;28;20655;-87
2023/09/16 00:52:44;;;;;;;1.65;0.88;;;9.30;99.90;;;;;;4935037;28;20737;-87
2023/09/16 00:55:12;;;;;;;3.65;0.88;;;9.40;99.90;;;;;;4944783;28;20188;-86
2023/09/16 00:57:42;;;;;;;1.90;0.90;;;9.30;99.90;;;;;;4929093;28;20192;-87
2023/09/16 01:00:10;;;;;;;5.18;0.80;;;9.30;99.90;;;;;;4958609;28;20523;-87
2023/09/16 01:02:38;;;;;;;2.25;0.80;;;9.30;99.90;;;;;;4935322;28;20188;-86
2023/09/16 01:05:14;;;;;;;2.50;0.77;;;9.30;99.90;;;;;;4960122;28;20283;-86
2023/09/16 01:07:46;;;;;;;2.03;0.77;;;9.20;99.90;;;;;;4932915;29;20203;-87
2023/09/16 01:10:15;;;;;;;1.50;0.90;;;9.20;99.90;;;;;;4936684;28;20203;-86
2023/09/16 01:12:43;;;;;;;5.47;0.80;;;9.20;99.90;;;;;;4924936;28;20204;-86
2023/09/16 01:15:13;;;;;;;3.42;1.10;;;9.20;99.90;;;;;;4947394;28;20184;-87
2023/09/16 01:18:06;;;;;;;4.38;1.05;;;9.20;99.90;;;;;;4950696;29;20196;-87
2023/09/16 01:20:35;;;;;;;2.72;0.70;;;9.20;99.90;;;;;;4946523;28;20217;-87
2023/09/16 01:23:03;;;;;;;3.03;0.82;;;9.20;99.90;;;;;;4932974;29;20239;-86
2023/09/16 01:25:31;;;;;;;2.08;0.77;;;9.20;99.90;;;;;;4946251;28;20195;-86
2023/09/16 01:27:59;;;;;;;1.77;0.95;;;9.20;99.90;;;;;;4940062;28;20204;-87
2023/09/16 01:30:28;;;;;;;3.60;0.90;;;9.10;99.90;;;;;;4956412;28;20197;-87
2023/09/16 01:33:09;;;;;;;4.40;1.10;;;9.10;99.90;;;;;;4946092;28;20196;-89
2023/09/16 01:35:39;;;;;;;2.65;1.00;;;9.10;99.90;;;;;;4933016;29;20223;-85
2023/09/16 01:38:08;;;;;;;1.27;1.05;;;9.10;99.90;;;;;;4934623;28;20267;-86
2023/09/16 01:40:37;;;;;;;3.40;1.00;;;9.10;99.90;;;;;;4953338;28;20232;-86
2023/09/16 01:43:07;;;;;;;1.50;0.73;;;9.00;99.90;;;;;;4927594;29;20197;-85
2023/09/16 01:45:44;;;;;;;1.17;0.70;;;9.00;99.90;;;;;;4929089;28;20227;-88
2023/09/16 01:48:14;;;;;;;1.45;0.80;;;9.00;99.90;;;;;;4958212;28;20224;-87
2023/09/16 01:50:44;;;;;;;2.55;0.90;;;9.00;99.90;;;;;;4962688;28;20556;-87
2023/09/16 01:53:11;;;;;;;2.95;0.98;;;8.90;99.90;;;;;;4960654;28;20219;-86
2023/09/16 01:55:42;;;;;;;1.98;1.00;;;8.90;99.90;;;;;;4965631;28;20188;-86
2023/09/16 01:58:10;;;;;;;0.90;0.70;;;8.90;99.90;;;;;;4934284;28;20203;-86
2023/09/16 02:00:37;;;;;;;1.63;0.98;;;8.90;99.90;;;;;;4942040;28;20220;-86
2023/09/16 02:03:05;;;;;;;2.65;0.93;;;8.90;99.90;;;;;;4942836;28;20200;-86
2023/09/16 02:05:33;;;;;;;1.60;0.80;;;8.90;99.90;;;;;;4943938;29;20189;-87
2023/09/16 02:08:01;;;;;;;3.17;1.00;;;8.90;99.90;;;;;;4933761;28;20200;-86
2023/09/16 02:10:29;;;;;;;3.60;0.80;;;8.80;99.90;;;;;;4960893;28;20278;-85
2023/09/16 02:12:56;;;;;;;3.33;0.90;;;8.90;99.90;;;;;;4934129;28;20192;-85
2023/09/16 02:15:24;;;;;;;4.10;1.25;;;8.90;99.90;;;;;;4925225;29;20275;-86
2023/09/16 02:17:52;;;;;;;2.70;0.70;;;8.90;99.90;;;;;;4938581;29;20190;-86
2023/09/16 02:20:19;;;;;;;1.35;0.80;;;8.80;99.90;;;;;;4941368;29;20283;-86
2023/09/16 02:22:48;;;;;;;3.88;0.98;;;8.80;99.90;;;;;;4941664;29;20748;-86
2023/09/16 02:25:16;;;;;;;3.00;1.20;;;8.80;99.90;;;;;;4940086;29;20228;-86
2023/09/16 02:27:43;;;;;;;2.95;0.80;;;8.80;99.90;;;;;;4958169;28;20189;-86
2023/09/16 02:30:12;;;;;;;1.63;1.02;;;8.80;99.90;;;;;;4960067;28;20221;-85
2023/09/16 02:32:39;;;;;;;7.47;1.17;;;8.80;99.90;;;;;;4960822;28;20274;-86
2023/09/16 02:35:07;;;;;;;1.98;0.93;;;8.80;99.90;;;;;;4937299;28;20976;-85
2023/09/16 02:37:34;;;;;;;3.65;1.08;;;8.70;99.90;;;;;;4945326;28;20200;-86
2023/09/16 02:40:02;;;;;;;1.17;0.90;;;8.70;99.90;;;;;;4963436;28;20304;-86
2023/09/16 02:42:30;;;;;;;0.98;0.70;;;8.70;99.90;;;;;;4942083;29;20209;-87
2023/09/16 02:44:57;;;;;;;4.25;1.08;;;8.70;99.90;;;;;;4954798;28;20270;-87
2023/09/16 02:47:25;;;;;;;3.78;1.00;;;8.70;99.90;;;;;;4948151;28;20198;-86
2023/09/16 02:49:54;;;;;;;4.05;0.95;;;8.70;99.90;;;;;;4931951;29;20210;-86
2023/09/16 02:52:22;;;;;;;1.38;0.88;;;8.60;99.90;;;;;;4952306;28;20683;-85
2023/09/16 02:54:49;;;;;;;3.17;1.20;;;8.60;99.90;;;;;;4929105;29;20207;-86
2023/09/16 02:57:17;;;;;;;4.32;1.05;;;8.70;99.90;;;;;;4964346;28;20192;-87
2023/09/16 02:59:45;;;;;;;2.63;1.00;;;8.60;99.90;;;;;;4954846;28;20230;-87
2023/09/16 03:02:12;;;;;;;3.25;1.00;;;8.60;99.90;;;;;;4954502;28;20214;-87
2023/09/16 03:04:40;;;;;;;2.80;1.27;;;8.60;99.90;;;;;;4942390;28;20573;-87
2023/09/16 03:07:09;;;;;;;2.45;1.27;;;8.60;99.90;;;;;;4937355;28;20200;-87
2023/09/16 03:09:37;;;;;;;4.60;0.90;;;8.50;99.90;;;;;;4948632;28;20203;-86
2023/09/16 03:12:07;;;;;;;4.30;1.17;;;8.40;99.90;;;;;;4954264;28;20212;-85
2023/09/16 03:14:35;;;;;;;2.20;1.20;;;8.50;99.90;;;;;;4954197;28;20200;-87
2023/09/16 03:17:03;;;;;;;3.47;1.05;;;8.20;99.90;;;;;;4944336;28;20196;-86
2023/09/16 03:19:32;;;;;;;1.83;1.00;;;8.30;99.90;;;;;;4935125;28;20197;-86
2023/09/16 03:21:59;;;;;;;2.33;1.15;;;8.20;99.90;;;;;;4963134;28;20299;-85
2023/09/16 03:24:28;;;;;;;5.13;1.23;;;8.20;99.90;;;;;;4946307;28;20199;-86
2023/09/16 03:26:56;;;;;;;3.15;1.10;;;8.30;99.90;;;;;;4951009;28;20185;-85
2023/09/16 03:29:24;;;;;;;3.33;1.05;;;8.30;99.90;;;;;;4932382;28;20224;-88
2023/09/16 03:31:53;;;;;;;2.72;1.13;;;8.30;99.90;;;;;;4936265;28;20822;-87
2023/09/16 03:34:21;;;;;;;1.30;1.02;;;8.30;99.90;;;;;;4935541;29;20205;-87
2023/09/16 03:36:48;;;;;;;1.60;1.00;;;8.20;99.90;;;;;;4922039;29;21043;-86
2023/09/16 03:39:16;;;;;;;3.75;1.30;;;8.20;99.90;;;;;;4950699;29;20291;-85
2023/09/16 03:41:44;;;;;;;4.20;1.17;;;8.00;99.90;;;;;;4956815;28;20228;-86
2023/09/16 03:44:14;;;;;;;1.55;1.00;;;8.10;99.90;;;;;;4936486;28;20659;-85
2023/09/16 03:46:42;;;;;;;4.47;1.05;;;8.10;99.90;;;;;;4935946;28;20240;-87
2023/09/16 03:49:09;;;;;;;2.35;1.30;;;8.10;99.90;;;;;;4930642;28;20206;-86
2023/09/16 03:51:38;;;;;;;2.75;1.17;;;8.20;99.90;;;;;;4952972;28;20188;-86
2023/09/16 03:54:07;;;;;;;2.38;1.05;;;8.20;99.90;;;;;;4948028;29;20228;-85
2023/09/16 03:56:35;;;;;;;2.38;1.10;;;8.10;99.90;;;;;;4951673;28;20200;-86
2023/09/16 03:59:03;;;;;;;4.95;1.20;;;8.10;99.90;;;;;;4947773;28;20670;-87
2023/09/16 04:01:32;;;;;;;2.03;0.98;;;8.20;99.90;;;;;;4937732;28;20262;-86
2023/09/16 04:03:59;;;;;;;2.20;0.85;;;8.20;99.90;;;;;;4959724;28;20243;-86
2023/09/16 04:06:27;;;;;;;2.50;1.13;;;8.30;99.90;;;;;;4950147;29;20673;-85
2023/09/16 04:08:54;;;;;;;4.50;1.25;;;8.30;99.90;;;;;;4949529;28;20813;-89
2023/09/16 04:11:22;;;;;;;2.00;1.00;;;8.10;99.90;;;;;;4941010;29;20205;-90
2023/09/16 04:13:50;;;;;;;1.60;0.80;;;8.10;99.90;;;;;;4955550;28;20307;-86
2023/09/16 04:16:18;;;;;;;4.40;1.13;;;8.10;99.90;;;;;;4944688;29;20196;-89
2023/09/16 04:18:46;;;;;;;1.65;0.90;;;8.10;99.90;;;;;;4939120;28;20203;-87
2023/09/16 04:21:13;;;;;;;4.28;1.00;;;8.10;99.90;;;;;;4941102;29;20228;-88
2023/09/16 04:23:40;;;;;;;2.63;1.05;;;8.10;99.90;;;;;;4925009;28;20192;-88
2023/09/16 04:26:13;;;;;;;1.73;1.00;;;8.20;99.90;;;;;;4926843;28;20203;-87
2023/09/16 04:28:42;;;;;;;2.55;1.13;;;8.20;99.90;;;;;;4936619;28;20663;-88
2023/09/16 04:31:10;;;;;;;2.22;0.88;;;8.20;99.90;;;;;;4927220;29;20204;-89
2023/09/16 04:33:40;;;;;;;7.05;1.33;;;8.20;99.90;;;;;;4928159;28;20188;-89
2023/09/16 04:36:10;;;;;;;1.30;0.90;;;8.30;99.90;;;;;;4937489;28;20200;-87
2023/09/16 04:38:37;;;;;;;3.75;0.90;;;8.20;99.90;;;;;;4922968;28;20200;-87
2023/09/16 04:41:05;;;;;;;3.90;1.10;;;8.20;99.90;;;;;;4915956;29;20234;-86
2023/09/16 04:43:33;;;;;;;2.13;1.20;;;8.30;99.90;;;;;;4927809;29;20284;-88
2023/09/16 04:46:05;;;;;;;2.08;1.23;;;8.30;99.90;;;;;;4927669;29;20200;-88
2023/09/16 04:48:37;;;;;;;2.17;1.20;;;8.30;99.90;;;;;;4929718;29;20361;-90
2023/09/16 04:51:05;;;;;;;2.60;0.93;;;8.40;99.90;;;;;;4927928;29;20189;-89
2023/09/16 04:53:33;;;;;;;2.95;1.20;;;8.40;99.90;;;;;;4931294;29;20269;-89
2023/09/16 04:56:05;;;;;;;1.63;1.10;;;8.40;99.90;;;;;;4930970;29;20665;-89
2023/09/16 04:58:36;;;;;;;3.80;1.38;;;8.50;99.90;;;;;;4929599;29;20216;-89
2023/09/16 05:01:05;;;;;;;2.80;1.20;;;8.50;99.90;;;;;;4932055;29;20194;-89
2023/09/16 05:03:36;;;;;;;2.08;1.08;;;8.50;99.90;;;;;;4916448;29;20189;-89
2023/09/16 05:06:04;;;;;;;3.88;1.30;;;8.60;99.90;;;;;;4915532;29;20245;-90
2023/09/16 05:08:37;;;;;;;2.65;1.15;;;8.60;99.90;;;;;;4931754;29;20197;-88
2023/09/16 05:11:06;;;;;;;2.17;1.00;;;8.60;99.90;;;;;;4931917;29;20264;-88
2023/09/16 05:14:04;;;;;;;3.67;1.17;;;8.60;99.90;;;;;;4921723;29;20193;-89
2023/09/16 05:16:32;;;;;;;3.22;1.20;;;8.60;99.90;;;;;;4939962;29;20199;-87
2023/09/16 05:19:05;;;;;;;2.03;1.35;;;8.70;99.90;;;;;;4932070;29;20236;-90
2023/09/16 05:21:34;;;;;;;2.60;1.40;;;8.70;99.90;;;;;;4915516;29;20210;-90
2023/09/16 05:24:02;;;;;;;3.03;1.27;;;8.70;99.90;;;;;;4915297;29;20192;-88
2023/09/16 05:26:30;;;;;;;6.35;1.77;;;8.80;99.90;;;;;;4915183;29;20208;-89
2023/09/16 05:29:01;;;;;;;6.47;1.85;;;8.90;99.90;;;;;;4932162;29;20284;-88
2023/09/16 05:31:31;;;;;;;2.58;1.40;;;9.00;99.90;;;;;;4916258;29;20212;-89
2023/09/16 05:33:59;;;;;;;2.80;1.27;;;9.20;99.90;;;;;;4929056;29;20193;-90
2023/09/16 05:36:28;;;;;;;2.30;1.48;;;9.20;99.90;;;;;;4928846;29;20193;-89
2023/09/16 05:39:00;;;;;;;6.35;1.38;;;9.30;99.90;;;;;;4914527;29;20202;-89
2023/09/16 05:41:29;;;;;;;1.85;1.40;;;9.40;99.90;;;;;;4929814;29;20590;-90
2023/09/16 05:44:01;;;;;;;5.03;1.50;;;9.50;99.90;;;;;;4925752;29;20362;-91
2023/09/16 05:46:31;;;;;;;2.40;1.40;;;9.50;99.90;;;;;;4931063;29;20756;-89
2023/09/16 05:49:08;;;;;;;3.97;1.33;;;9.60;99.90;;;;;;4926733;29;20190;-89
2023/09/16 05:51:42;;;;;;;3.65;1.30;;;9.60;99.90;;;;;;4911738;29;20216;-89
2023/09/16 05:54:16;;;;;;;3.45;1.20;;;9.70;99.90;;;;;;4914634;29;20284;-87
2023/09/16 05:56:49;;;;;;;2.95;1.45;;;9.80;99.90;;;;;;4927557;29;20621;-90
2023/09/16 05:59:21;;;;;;;3.38;1.40;;;9.70;99.90;;;;;;4913423;29;20198;-88
2023/09/16 06:01:53;;;;;;;3.60;1.33;;;9.90;99.90;;;;;;4923163;29;20268;-89
2023/09/16 06:04:22;;;;;;;2.47;1.30;;;9.90;99.90;;;;;;4906612;29;20193;-90
2023/09/16 06:06:53;;;;;;;2.28;1.10;;;9.90;99.90;;;;;;4914078;29;20197;-91
2023/09/16 06:09:27;;;;;;;4.43;1.10;;;10.00;99.90;;;;;;4912579;29;20198;-89
2023/09/16 06:11:59;;;;;;;2.13;1.20;;;10.00;99.90;;;;;;4904304;29;20200;-89
2023/09/16 06:14:27;;;;;;;2.65;1.10;;;10.10;99.90;;;;;;4929759;29;20243;-88
2023/09/16 06:16:56;;;;;;;3.65;1.65;;;10.20;99.90;;;;;;4905655;29;20209;-88
2023/09/16 06:19:31;;;;;;;3.15;1.63;;;10.30;99.90;;;;;;4923348;29;20293;-91
2023/09/16 06:22:13;;;;;;;3.35;1.45;;;10.40;99.90;;;;;;4916801;29;20216;-87
2023/09/16 06:24:43;;;;;;;2.17;1.08;;;10.40;99.90;;;;;;4935234;29;20197;-86
2023/09/16 06:27:14;;;;;;;1.85;1.10;;;10.40;99.90;;;;;;4933943;29;20253;-85
2023/09/16 06:29:46;;;;;;;2.53;1.05;;;10.60;99.90;;;;;;4923949;29;20178;-88
2023/09/16 06:32:15;;;;;;;2.90;1.20;;;10.60;99.90;;;;;;4937325;29;20213;-85
2023/09/16 06:34:44;;;;;;;1.95;1.20;;;10.60;99.90;;;;;;4922454;29;20230;-86
2023/09/16 06:37:13;;;;;;;2.28;1.17;;;10.70;99.90;;;;;;4915458;29;20205;-86
2023/09/16 06:39:45;;;;;;;1.77;1.10;;;10.80;99.90;;;;;;4926842;28;20217;-88
2023/09/16 06:42:23;;;;;;;2.13;1.15;;;10.80;99.90;;;;;;4943575;29;20212;-85
2023/09/16 06:45:03;;;;;;;2.10;1.17;;;10.80;99.90;;;;;;4960733;28;20196;-84
2023/09/16 06:47:31;;;;;;;2.55;1.10;;;10.90;99.90;;;;;;4956584;29;20275;-87
2023/09/16 06:50:00;;;;;;;2.50;1.33;;;10.90;99.90;;;;;;4949125;29;20199;-85
2023/09/16 06:52:28;;;;;;;1.98;1.15;;;11.00;99.90;;;;;;4955209;28;20212;-86
2023/09/16 06:54:56;;;;;;;2.38;1.10;;;11.10;99.90;;;;;;4967983;28;20196;-90
2023/09/16 06:57:23;;;;;;;1.77;1.10;;;11.10;99.90;;;;;;4974350;28;20188;-87
2023/09/16 06:59:51;;;;;;;2.55;1.10;;;11.10;99.90;;;;;;4942233;28;20247;-88
2023/09/16 07:02:19;;;;;;;2.70;1.20;;;11.20;99.90;;;;;;4952680;28;20298;-83
2023/09/16 07:04:46;;;;;;;2.53;1.60;;;11.30;99.90;;;;;;4978243;28;20193;-84
2023/09/16 07:07:14;;;;;;;3.35;1.20;;;11.40;99.90;;;;;;4975956;28;20189;-84
2023/09/16 07:09:42;;;;;;;5.63;1.30;;;11.50;99.90;;;;;;4960319;28;20288;-84
2023/09/16 07:12:09;;;;;;;2.45;1.15;;;11.50;99.90;;;;;;4961168;28;20200;-85
2023/09/16 07:14:37;;;;;;;3.97;1.20;;;11.50;99.90;;;;;;4958050;28;20315;-88
2023/09/16 07:17:06;;;;;;;2.20;1.30;;;11.50;99.90;;;;;;4953934;28;20197;-87
2023/09/16 07:19:34;;;;;;;2.80;1.40;;;11.60;99.90;;;;;;4937944;28;20207;-91
2023/09/16 07:22:01;;;;;;;2.33;1.33;;;11.50;99.90;;;;;;4961909;28;20240;-89
2023/09/16 07:24:29;;;;;;;2.22;1.20;;;11.60;99.90;;;;;;4968002;28;20184;-87
2023/09/16 07:26:56;;;;;;;2.20;1.10;;;11.70;99.90;;;;;;4949014;28;20176;-89
2023/09/16 07:29:27;;;;;;;1.83;1.35;;;11.70;99.90;;;;;;4967381;28;20184;-90
2023/09/16 07:31:56;;;;;;;2.80;1.58;;;11.80;99.90;;;;;;4970255;28;20212;-90
2023/09/16 07:34:25;;;;;;;4.13;1.38;;;11.80;99.90;;;;;;4939041;28;20188;-90
2023/09/16 07:36:53;;;;;;;2.80;1.30;;;11.90;99.90;;;;;;4938741;28;20222;-89
2023/09/16 07:39:20;;;;;;;2.60;1.20;;;11.90;99.90;;;;;;4955721;28;20757;-90
2023/09/16 07:41:48;;;;;;;3.95;1.40;;;12.00;99.90;;;;;;4967620;28;20223;-90
2023/09/16 07:44:17;;;;;;;4.47;1.30;;;12.10;99.90;;;;;;4953181;28;20243;-88
2023/09/16 07:46:45;;;;;;;3.05;1.20;;;12.10;99.90;;;;;;4972419;28;20188;-88
2023/09/16 07:49:13;;;;;;;2.45;1.30;;;12.10;99.90;;;;;;4953015;28;20196;-89
2023/09/16 07:51:42;;;;;;;3.13;1.38;;;12.20;99.90;;;;;;4955986;28;20337;-88
2023/09/16 07:54:10;;;;;;;2.15;1.40;;;12.30;99.90;;;;;;4969695;28;20195;-88
2023/09/16 07:56:37;;;;;;;3.78;1.48;;;12.40;99.90;;;;;;4952888;28;20284;-87
2023/09/16 07:59:05;;;;;;;1.90;0.95;;;12.50;99.90;;;;;;4971753;28;20226;-88
2023/09/16 08:01:32;;;;;;;2.90;1.05;;;12.50;99.90;;;;;;4954584;28;20207;-89
2023/09/16 08:04:00;;;;;;;3.40;1.48;;;12.60;99.90;;;;;;4951238;28;20204;-88
2023/09/16 08:06:28;;;;;;;2.30;1.40;;;12.60;99.90;;;;;;4937566;28;20195;-89
2023/09/16 08:08:56;;;;;;;2.30;1.58;;;12.70;99.90;;;;;;4960226;28;20188;-89
2023/09/16 08:11:23;;;;;;;4.20;1.30;;;12.90;99.90;;;;;;4952869;28;20840;-89
2023/09/16 08:13:51;;;;;;;3.03;1.40;;;12.80;99.90;;;;;;4937092;28;20204;-88
2023/09/16 08:16:19;;;;;;;2.35;1.20;;;13.00;99.90;;;;;;4938863;28;20291;-90
2023/09/16 08:18:46;;;;;;;4.53;1.50;;;13.00;99.90;;;;;;4944197;28;20272;-90
2023/09/16 08:21:15;;;;;;;4.55;1.58;;;13.00;99.90;;;;;;4971740;28;20216;-92
2023/09/16 08:23:42;;;;;;;1.95;1.13;;;13.00;99.90;;;;;;4966789;28;20214;-88
2023/09/16 08:26:10;;;;;;;5.07;1.35;;;13.20;99.90;;;;;;4955115;28;20184;-89
2023/09/16 08:28:37;;;;;;;3.70;1.20;;;13.50;99.90;;;;;;4955089;28;20188;-90
2023/09/16 08:31:05;;;;;;;1.75;1.23;;;13.50;99.90;;;;;;4952310;28;20189;-89
2023/09/16 08:33:32;;;;;;;2.63;1.33;;;13.50;99.90;;;;;;4970899;28;20190;-89
2023/09/16 08:36:00;;;;;;;1.95;1.20;;;13.50;99.90;;;;;;4972131;28;20212;-89
2023/09/16 08:38:27;;;;;;;2.45;1.42;;;13.40;99.90;;;;;;4971030;28;20192;-89
2023/09/16 08:41:18;;;;;;;4.85;1.48;;;13.50;99.90;;;;;;4971101;28;20232;-90
2023/09/16 08:43:49;;;;;;;3.22;1.17;;;13.50;99.90;;;;;;4968199;28;20287;-89
2023/09/16 08:46:21;;;;;;;2.72;1.20;;;13.70;99.90;;;;;;4970511;28;20185;-88
2023/09/16 08:48:54;;;;;;;5.15;1.35;;;13.70;99.90;;;;;;4968480;28;20235;-89
2023/09/16 08:51:24;;;;;;;1.75;1.13;;;13.90;99.90;;;;;;4971562;28;20188;-89
2023/09/16 08:53:54;;;;;;;4.43;1.25;;;13.90;99.90;;;;;;4969518;28;20299;-89
2023/09/16 08:56:22;;;;;;;2.33;1.40;;;14.10;99.90;;;;;;4948481;28;20337;-89
2023/09/16 08:58:53;;;;;;;2.33;1.27;;;14.10;99.90;;;;;;4970305;28;20207;-89
2023/09/16 09:01:21;;;;;;;1.70;1.05;;;14.20;99.90;;;;;;4953852;28;20191;-88
2023/09/16 09:03:49;;;;;;;3.65;1.30;;;14.10;99.90;;;;;;4952780;28;20267;-90
2023/09/16 09:06:19;;;;;;;1.90;1.23;;;14.50;99.90;;;;;;4970203;28;20193;-87
2023/09/16 09:09:06;;;;;;;5.93;1.40;;;14.30;99.90;;;;;;4954058;28;20278;-88
2023/09/16 09:11:34;;;;;;;1.95;1.00;;;14.30;99.90;;;;;;4954308;28;20184;-91
2023/09/16 09:14:03;;;;;;;2.28;1.08;;;14.30;99.90;;;;;;4970617;28;20262;-89
2023/09/16 09:16:33;;;;;;;1.35;0.90;;;14.30;99.90;;;;;;4953633;28;20196;-89
2023/09/16 09:19:02;;;;;;;1.92;1.20;;;14.40;99.90;;;;;;4953055;28;20251;-89
2023/09/16 09:21:32;;;;;;;2.95;1.02;;;14.50;99.90;;;;;;4967866;28;20192;-89
2023/09/16 09:24:00;;;;;;;1.70;1.00;;;14.50;99.90;;;;;;4952700;28;20207;-90
2023/09/16 09:26:29;;;;;;;3.53;1.15;;;14.60;99.90;;;;;;4951437;28;20219;-86
2023/09/16 09:29:00;;;;;;;2.20;1.30;;;14.50;99.90;;;;;;4937219;28;20242;-89
2023/09/16 09:31:30;;;;;;;3.60;1.20;;;14.70;99.90;;;;;;4953018;28;20235;-87
2023/09/16 09:33:58;;;;;;;3.13;1.25;;;14.80;99.90;;;;;;4960406;28;20223;-89
2023/09/16 09:36:27;;;;;;;1.67;1.05;;;14.80;99.90;;;;;;4933887;28;20203;-85
2023/09/16 09:38:57;;;;;;;1.98;1.10;;;14.80;99.90;;;;;;4958949;28;20188;-87
2023/09/16 09:41:25;;;;;;;3.85;1.10;;;14.80;99.90;;;;;;4976269;28;20866;-83
2023/09/16 09:43:53;;;;;;;2.22;1.05;;;14.80;99.90;;;;;;4958415;28;20219;-89
2023/09/16 09:46:21;;;;;;;3.25;1.10;;;14.90;99.90;;;;;;4971845;28;20260;-89
2023/09/16 09:48:49;;;;;;;2.85;1.15;;;15.00;99.90;;;;;;4978830;28;20240;-81
2023/09/16 09:51:19;;;;;;;5.57;1.58;;;15.10;99.90;;;;;;4976963;28;20208;-81
2023/09/16 09:53:47;;;;;;;1.67;0.95;;;15.10;99.90;;;;;;4981375;28;20202;-82
2023/09/16 09:56:15;;;;;;;2.17;1.20;;;15.10;99.90;;;;;;4964659;28;20196;-82
2023/09/16 09:58:43;;;;;;;1.45;1.00;;;15.30;99.90;;;;;;4980952;28;20605;-83
2023/09/16 10:01:10;;;;;;;2.08;0.98;;;15.40;99.90;;;;;;4980867;28;20200;-83
2023/09/16 10:03:38;;;;;;;5.78;1.35;;;15.50;99.90;;;;;;4981539;28;20275;-83
2023/09/16 10:06:16;;;;;;;3.90;1.10;;;15.70;99.90;;;;;;4964889;28;20727;-83
2023/09/16 10:08:44;;;;;;;2.20;1.33;;;15.60;99.90;;;;;;4979228;28;20207;-82
2023/09/16 10:11:12;;;;;;;4.85;1.40;;;15.70;99.90;;;;;;4956037;28;20195;-82
2023/09/16 10:13:40;;;;;;;3.55;1.27;;;15.80;99.90;;;;;;4963624;28;20208;-82
2023/09/16 10:16:09;;;;;;;4.32;1.50;;;15.70;99.90;;;;;;4964201;28;20267;-82
2023/09/16 10:18:37;;;;;;;5.07;1.17;;;15.80;99.90;;;;;;4980983;28;20195;-81
2023/09/16 10:21:07;;;;;;;4.65;1.25;;;15.90;99.90;;;;;;4975894;28;20192;-82
2023/09/16 10:23:35;;;;;;;3.63;1.17;;;15.70;99.90;;;;;;4953584;29;20633;-82
2023/09/16 10:26:03;;;;;;;3.28;1.17;;;16.10;99.90;;;;;;4955858;28;20196;-81
2023/09/16 10:28:32;;;;;;;8.95;1.38;;;16.30;99.90;;;;;;4967803;28;20188;-85
2023/09/16 10:31:00;;;;;;;3.70;1.48;;;16.30;99.90;;;;;;4971707;28;20239;-80
2023/09/16 10:33:28;;;;;;;2.83;1.73;;;16.50;99.90;;;;;;4980789;28;20215;-81
2023/09/16 10:35:56;;;;;;;3.53;1.55;;;16.20;99.90;;;;;;4975997;28;20271;-81
2023/09/16 10:38:26;;;;;;;1.67;1.08;;;16.50;99.90;;;;;;4974684;28;20196;-81
2023/09/16 10:40:57;;;;;;;3.35;1.42;;;16.50;99.90;;;;;;4975191;28;20223;-81
2023/09/16 10:43:26;;;;;;;1.77;1.00;;;16.50;99.90;;;;;;4947698;28;20287;-80
2023/09/16 10:45:55;;;;;;;2.97;1.15;;;16.60;99.90;;;;;;4971580;28;20204;-85
2023/09/16 10:48:25;;;;;;;1.83;1.00;;;16.60;99.90;;;;;;4961574;28;20194;-84
2023/09/16 10:51:00;;;;;;;1.75;0.98;;;16.80;99.90;;;;;;4959558;28;20198;-85
2023/09/16 10:53:36;;;;;;;3.42;1.20;;;16.80;99.90;;;;;;4956266;28;20200;-87
2023/09/16 10:56:29;;;;;;;2.60;1.10;;;16.80;99.90;;;;;;4942584;28;20270;-85
2023/09/16 10:59:10;;;;;;;2.60;1.20;;;16.90;99.90;;;;;;4946080;28;20195;-88
2023/09/16 11:01:53;;;;;;;4.70;1.50;;;16.90;99.90;;;;;;4956067;28;20192;-88
2023/09/16 11:04:22;;;;;;;2.45;1.05;;;17.00;99.90;;;;;;4977383;28;20250;-90
2023/09/16 11:06:58;;;;;;;3.20;1.25;;;17.10;99.90;;;;;;4974911;28;20202;-88
2023/09/16 11:09:28;;;;;;;3.95;1.30;;;17.20;99.90;;;;;;4943878;28;20196;-84
2023/09/16 11:11:59;;;;;;;3.53;1.13;;;17.20;99.90;;;;;;4954416;28;20192;-87
2023/09/16 11:14:29;;;;;;;2.08;1.10;;;17.30;99.90;;;;;;4968635;28;20251;-86
2023/09/16 11:17:09;;;;;;;3.28;1.23;;;17.60;99.90;;;;;;4931158;28;20213;-85
2023/09/16 11:19:37;;;;;;;1.95;1.05;;;17.60;99.90;;;;;;4960233;28;20216;-87
2023/09/16 11:22:07;;;;;;;3.28;1.10;;;17.60;99.90;;;;;;4963474;28;20767;-85
2023/09/16 11:24:37;;;;;;;1.85;1.10;;;17.70;99.90;;;;;;4951329;28;20211;-86
2023/09/16 11:27:07;;;;;;;4.38;2.20;;;17.50;99.90;;;;;;4949311;28;20189;-85
2023/09/16 11:29:37;;;;;;;1.63;0.95;;;17.60;99.90;;;;;;4936878;28;20267;-84
2023/09/16 11:32:05;;;;;;;1.73;1.00;;;17.60;99.90;;;;;;4949113;28;20203;-85
2023/09/16 11:34:33;;;;;;;10.40;4.93;;;17.60;99.90;;;;;;4950813;28;20207;-83
2023/09/16 11:37:01;;;;;;;4.85;1.10;;;17.70;99.90;;;;;;4946859;28;20203;-87
2023/09/16 11:39:36;;;;;;;3.17;1.20;;;17.90;99.90;;;;;;4960972;28;20296;-89
2023/09/16 11:42:04;;;;;;;3.60;1.17;;;18.00;99.90;;;;;;4952404;28;20199;-88
2023/09/16 11:44:37;;;;;;;3.15;1.30;;;18.00;99.90;;;;;;4959286;28;20260;-87
2023/09/16 11:47:09;;;;;;;2.70;1.15;;;18.10;99.90;;;;;;4950883;28;20287;-87
2023/09/16 11:49:40;;;;;;;4.45;1.50;;;18.00;99.90;;;;;;4952470;28;20184;-89
2023/09/16 11:52:14;;;;;;;1.73;1.30;;;18.20;99.90;;;;;;4948068;28;20323;-89
2023/09/16 11:54:46;;;;;;;6.82;1.50;;;18.40;99.90;;;;;;4954760;28;20215;-88
2023/09/16 11:57:19;;;;;;;2.72;1.30;;;18.50;99.90;;;;;;4970469;28;20286;-89
2023/09/16 11:59:47;;;;;;;4.53;1.38;;;18.30;99.90;;;;;;4973469;28;20188;-89
2023/09/16 12:02:20;;;;;;;2.60;1.75;;;18.30;99.90;;;;;;4956172;28;20199;-88
2023/09/16 12:04:48;;;;;;;3.28;2.15;;;18.30;99.90;;;;;;4955164;28;20207;-87
2023/09/16 12:07:16;;;;;;;4.35;1.30;;;18.30;99.90;;;;;;4953885;28;20271;-86
2023/09/16 12:09:46;;;;;;;3.10;1.30;;;18.30;99.90;;;;;;4939883;28;20279;-89
2023/09/16 12:12:14;;;;;;;2.65;1.27;;;18.40;99.90;;;;;;4970926;28;20188;-87
2023/09/16 12:14:42;;;;;;;6.47;1.33;;;18.40;99.90;;;;;;4954895;28;20223;-89
2023/09/16 12:17:11;;;;;;;2.85;1.30;;;18.90;99.90;;;;;;4937312;28;20224;-87
2023/09/16 12:19:54;;;;;;;2.80;1.77;;;19.00;99.90;;;;;;4952060;28;20230;-88
2023/09/16 12:22:27;;;;;;;1.88;1.23;;;18.70;99.90;;;;;;4955272;28;20275;-86
2023/09/16 12:24:55;;;;;;;1.50;0.90;;;18.60;99.90;;;;;;4938726;28;20226;-89
2023/09/16 12:27:24;;;;;;;3.33;1.20;;;18.60;99.90;;;;;;4938682;28;20192;-89
2023/09/16 12:30:00;;;;;;;3.15;1.25;;;18.50;99.90;;;;;;4952201;28;20215;-87
2023/09/16 12:32:31;;;;;;;2.88;1.67;;;18.50;99.90;;;;;;4937155;28;20201;-89
2023/09/16 12:35:12;;;;;;;2.17;1.05;;;18.70;99.90;;;;;;4953729;28;20218;-90
2023/09/16 12:37:47;;;;;;;2.15;1.00;;;18.90;99.90;;;;;;4938891;28;20200;-86
2023/09/16 12:40:19;;;;;;;3.28;1.35;;;18.80;99.90;;;;;;4954217;28;20327;-85
2023/09/16 12:42:47;;;;;;;4.65;1.10;;;19.10;99.90;;;;;;4969751;28;20278;-86
2023/09/16 12:45:17;;;;;;;8.75;5.40;;;19.20;99.90;;;;;;4949764;28;20279;-87
2023/09/16 12:47:45;;;;;;;1.98;1.23;;;19.30;99.90;;;;;;4968521;28;20687;-86
2023/09/16 12:50:13;;;;;;;2.85;1.30;;;19.10;99.90;;;;;;4951509;28;20275;-86
2023/09/16 12:52:41;;;;;;;3.58;1.10;;;19.10;99.90;;;;;;4931274;28;20188;-87
2023/09/16 12:55:13;;;;;;;2.97;1.40;;;19.00;99.90;;;;;;4949700;28;20849;-86
2023/09/16 12:57:44;;;;;;;2.50;1.17;;;19.00;99.90;;;;;;4965884;28;20263;-87
2023/09/16 13:00:25;;;;;;;1.80;1.00;;;19.10;99.90;;;;;;4952635;28;20255;-86
2023/09/16 13:03:00;;;;;;;1.52;1.00;;;19.10;99.90;;;;;;4968125;28;20252;-86